Time;durP1;ratioP1;P1;durP2;ratioP2;P2;SDS_P1;SDS_P2;PMS_P1;PMS_P2;Temp;Humidity;BMP_temperature;BMP_pressure;BME280_temperature;BME280_humidity;BME280_pressure;Samples;Min_cycle;Max_cycle;Signal;HPM_P1;HPM_P2
2023/08/14 00:00:14;;;;;;;14.98;2.13;;;16.40;99.90;;;;;;5052436;28;20185;-81
2023/08/14 00:02:39;;;;;;;10.95;2.17;;;16.60;99.90;;;;;;5052957;28;20260;-77
2023/08/14 00:05:05;;;;;;;11.45;2.25;;;16.70;99.90;;;;;;5052175;28;20185;-78
2023/08/14 00:07:31;;;;;;;13.32;1.85;;;16.70;99.90;;;;;;5052939;28;20169;-77
2023/08/14 00:09:56;;;;;;;8.88;2.40;;;16.70;99.90;;;;;;5045868;28;20189;-82
2023/08/14 00:12:22;;;;;;;13.85;2.03;;;16.70;99.90;;;;;;5048370;28;20266;-77
2023/08/14 00:14:48;;;;;;;9.40;2.33;;;16.60;99.90;;;;;;5052333;28;20196;-77
2023/08/14 00:17:13;;;;;;;14.50;2.63;;;16.50;99.90;;;;;;5052558;28;20244;-78
2023/08/14 00:19:39;;;;;;;10.93;2.15;;;16.50;99.90;;;;;;5052733;28;20200;-75
2023/08/14 00:22:04;;;;;;;13.43;2.03;;;16.40;99.90;;;;;;5053014;28;20169;-76
2023/08/14 00:24:30;;;;;;;9.35;2.00;;;16.30;99.90;;;;;;5052344;28;20567;-76
2023/08/14 00:26:55;;;;;;;9.32;1.90;;;16.20;99.90;;;;;;5052527;28;20217;-77
2023/08/14 00:29:21;;;;;;;7.60;1.80;;;16.20;99.90;;;;;;5052823;28;20169;-74
2023/08/14 00:31:47;;;;;;;11.85;1.70;;;16.10;99.90;;;;;;5052371;28;20646;-76
2023/08/14 00:34:12;;;;;;;9.73;1.65;;;16.10;99.90;;;;;;5051339;28;20175;-75
2023/08/14 00:36:38;;;;;;;6.35;1.50;;;16.00;99.90;;;;;;5052783;28;20177;-75
2023/08/14 00:39:03;;;;;;;6.40;1.30;;;15.90;99.90;;;;;;5052592;28;20639;-76
2023/08/14 00:41:30;;;;;;;11.45;1.75;;;15.90;99.90;;;;;;5052561;28;20200;-76
2023/08/14 00:43:56;;;;;;;7.18;1.00;;;16.00;99.90;;;;;;5052407;28;20177;-76
2023/08/14 00:46:22;;;;;;;4.38;1.38;;;16.00;99.90;;;;;;5051081;28;20180;-76
2023/08/14 00:48:48;;;;;;;2.50;0.80;;;15.90;99.90;;;;;;5052778;28;20170;-78
2023/08/14 00:51:14;;;;;;;5.95;1.20;;;16.00;99.90;;;;;;5052370;28;20212;-78
2023/08/14 00:53:39;;;;;;;6.07;1.30;;;15.90;99.90;;;;;;5052142;28;20176;-76
2023/08/14 00:56:05;;;;;;;2.78;0.95;;;16.00;99.90;;;;;;5050833;28;20651;-74
2023/08/14 00:58:31;;;;;;;3.67;1.15;;;16.10;99.90;;;;;;5052289;28;20182;-75
2023/08/14 01:00:58;;;;;;;4.78;1.35;;;15.90;99.90;;;;;;5050549;28;20181;-74
2023/08/14 01:03:24;;;;;;;1.98;0.80;;;15.90;99.90;;;;;;5051719;28;20162;-75
2023/08/14 01:05:49;;;;;;;2.88;0.70;;;15.90;99.90;;;;;;5051996;28;20251;-75
2023/08/14 01:08:15;;;;;;;2.72;1.00;;;15.90;99.90;;;;;;5052260;28;20295;-76
2023/08/14 01:10:52;;;;;;;6.47;1.55;;;15.80;99.90;;;;;;5052021;28;20199;-77
2023/08/14 01:13:28;;;;;;;4.38;1.20;;;15.90;99.90;;;;;;5051746;28;20176;-78
2023/08/14 01:15:58;;;;;;;6.25;1.13;;;15.90;99.90;;;;;;5051544;28;20218;-77
2023/08/14 01:18:26;;;;;;;3.25;1.00;;;15.90;99.90;;;;;;5051880;28;20173;-77
2023/08/14 01:21:14;;;;;;;1.77;0.70;;;15.90;99.90;;;;;;5051487;28;20189;-77
2023/08/14 01:23:55;;;;;;;1.77;0.55;;;15.90;99.90;;;;;;5031663;28;20195;-75
2023/08/14 01:26:21;;;;;;;2.58;0.50;;;15.80;99.90;;;;;;5051627;28;20303;-74
2023/08/14 01:28:47;;;;;;;2.28;0.80;;;15.90;99.90;;;;;;5051438;28;20211;-78
2023/08/14 01:31:12;;;;;;;4.35;0.73;;;16.00;99.90;;;;;;5051297;28;20213;-77
2023/08/14 01:33:38;;;;;;;2.65;0.70;;;16.00;99.90;;;;;;5051047;28;20246;-77
2023/08/14 01:36:15;;;;;;;2.33;0.60;;;16.00;99.90;;;;;;5051327;28;20173;-75
2023/08/14 01:39:05;;;;;;;2.50;0.70;;;15.90;99.90;;;;;;5046627;28;20200;-80
2023/08/14 01:41:43;;;;;;;2.92;0.88;;;15.90;99.90;;;;;;5040884;28;20165;-75
2023/08/14 01:44:13;;;;;;;3.72;0.75;;;15.90;99.90;;;;;;5051347;28;20177;-76
2023/08/14 01:46:42;;;;;;;1.88;0.70;;;15.90;99.90;;;;;;5050940;28;20256;-75
2023/08/14 01:49:11;;;;;;;2.33;0.75;;;15.90;99.90;;;;;;5051649;28;20239;-77
2023/08/14 01:51:38;;;;;;;4.00;0.70;;;15.90;99.90;;;;;;5051104;28;20201;-75
2023/08/14 01:54:04;;;;;;;4.50;0.75;;;15.90;99.90;;;;;;5051269;28;20169;-76
2023/08/14 01:56:30;;;;;;;3.15;0.60;;;15.90;99.90;;;;;;5051092;28;20520;-74
2023/08/14 01:58:55;;;;;;;3.75;0.50;;;15.90;99.90;;;;;;5049837;28;20177;-74
2023/08/14 02:01:21;;;;;;;4.03;1.00;;;15.80;99.90;;;;;;5050783;28;20188;-74
2023/08/14 02:03:46;;;;;;;3.08;0.75;;;16.00;99.90;;;;;;5050981;28;20234;-74
2023/08/14 02:06:12;;;;;;;3.70;0.60;;;15.90;99.90;;;;;;5049880;28;20670;-77
2023/08/14 02:08:37;;;;;;;1.52;0.63;;;15.90;99.90;;;;;;5050887;28;20165;-75
2023/08/14 02:11:07;;;;;;;3.67;0.77;;;15.90;99.90;;;;;;5050883;28;20208;-75
2023/08/14 02:13:33;;;;;;;3.03;0.60;;;15.90;99.90;;;;;;5040673;28;20189;-74
2023/08/14 02:15:59;;;;;;;2.60;0.75;;;15.90;99.90;;;;;;5047414;28;20177;-74
2023/08/14 02:18:24;;;;;;;3.78;0.52;;;15.90;99.90;;;;;;5047474;28;20624;-75
2023/08/14 02:20:52;;;;;;;2.40;0.70;;;15.90;99.90;;;;;;5030560;28;20736;-74
2023/08/14 02:23:17;;;;;;;3.70;0.82;;;15.90;99.90;;;;;;5030822;28;20170;-74
2023/08/14 02:25:43;;;;;;;1.42;0.52;;;15.90;99.90;;;;;;5030589;28;20243;-73
2023/08/14 02:28:09;;;;;;;4.80;1.17;;;15.90;99.90;;;;;;5030942;28;20169;-73
2023/08/14 02:30:37;;;;;;;6.78;1.17;;;16.00;99.90;;;;;;5044000;28;20197;-74
2023/08/14 02:33:03;;;;;;;5.43;1.10;;;16.00;99.90;;;;;;5050740;28;20263;-74
2023/08/14 02:35:29;;;;;;;5.78;1.08;;;16.00;99.90;;;;;;5050815;28;20285;-73
2023/08/14 02:37:54;;;;;;;6.47;1.30;;;16.00;99.90;;;;;;5049397;28;20655;-74
2023/08/14 02:40:20;;;;;;;7.60;1.90;;;16.00;99.90;;;;;;5049919;28;20181;-74
2023/08/14 02:42:45;;;;;;;5.28;1.40;;;16.10;99.90;;;;;;5050471;28;20223;-75
2023/08/14 02:45:11;;;;;;;5.15;1.55;;;16.10;99.90;;;;;;5050349;28;20583;-75
2023/08/14 02:47:37;;;;;;;6.80;1.90;;;16.20;99.90;;;;;;5050608;28;20173;-75
2023/08/14 02:50:02;;;;;;;9.55;1.80;;;16.30;99.90;;;;;;5050318;28;20177;-74
2023/08/14 02:52:28;;;;;;;7.13;1.73;;;16.20;99.90;;;;;;5050387;28;20208;-74
2023/08/14 02:54:53;;;;;;;9.05;1.92;;;16.30;99.90;;;;;;5048858;28;20671;-74
2023/08/14 02:57:19;;;;;;;9.05;2.03;;;;;;;;;;5050263;28;20244;-74
2023/08/14 02:59:45;;;;;;;10.77;1.60;;;16.10;99.90;;;;;;5032269;28;20184;-74
2023/08/14 03:02:11;;;;;;;7.53;1.65;;;16.40;99.90;;;;;;5050238;28;20175;-74
2023/08/14 03:04:36;;;;;;;7.43;1.52;;;16.60;99.90;;;;;;5048961;28;20173;-74
2023/08/14 03:07:02;;;;;;;13.18;1.95;;;16.40;99.90;;;;;;5049194;28;20651;-74
2023/08/14 03:09:27;;;;;;;8.15;1.58;;;16.40;99.90;;;;;;5049994;28;20205;-74
2023/08/14 03:11:53;;;;;;;7.18;1.55;;;;;;;;;;5050206;28;20216;-74
2023/08/14 03:14:19;;;;;;;8.35;1.30;;;16.40;99.90;;;;;;5048723;28;20169;-76
2023/08/14 03:16:45;;;;;;;5.38;1.40;;;16.40;99.90;;;;;;5048922;28;20520;-75
2023/08/14 03:19:10;;;;;;;4.82;1.42;;;16.40;99.90;;;;;;5050372;28;20639;-75
2023/08/14 03:21:37;;;;;;;2.47;0.85;;;16.40;99.90;;;;;;5049616;28;20177;-74
2023/08/14 03:24:03;;;;;;;6.60;1.65;;;16.40;99.90;;;;;;5050307;28;20626;-75
2023/08/14 03:26:28;;;;;;;3.70;1.17;;;16.50;99.90;;;;;;5052861;28;20245;-75
2023/08/14 03:28:54;;;;;;;7.10;1.17;;;16.20;99.90;;;;;;5053872;28;20244;-75
2023/08/14 03:31:19;;;;;;;7.32;1.27;;;16.50;99.90;;;;;;5053602;28;20232;-75
2023/08/14 03:33:45;;;;;;;8.02;1.90;;;16.50;99.90;;;;;;5053709;28;20592;-74
2023/08/14 03:36:10;;;;;;;7.22;1.70;;;16.40;99.90;;;;;;5053771;28;20180;-75
2023/08/14 03:38:36;;;;;;;7.93;1.23;;;16.50;99.90;;;;;;5053647;28;20665;-75
2023/08/14 03:41:03;;;;;;;7.10;1.73;;;16.50;99.90;;;;;;5053680;28;20181;-75
2023/08/14 03:43:29;;;;;;;5.53;1.40;;;16.50;99.90;;;;;;5053570;28;20180;-74
2023/08/14 03:45:56;;;;;;;7.28;1.70;;;15.40;99.90;;;;;;5053465;28;20228;-75
2023/08/14 03:48:22;;;;;;;5.95;1.80;;;16.50;99.90;;;;;;5053595;28;20197;-74
2023/08/14 03:50:47;;;;;;;6.70;1.60;;;16.50;99.90;;;;;;5052498;28;20205;-76
2023/08/14 03:53:13;;;;;;;6.97;1.50;;;16.50;99.90;;;;;;5053417;28;20173;-75
2023/08/14 03:55:39;;;;;;;10.05;1.83;;;16.50;99.90;;;;;;5053312;28;20623;-75
2023/08/14 03:58:05;;;;;;;7.82;1.85;;;16.50;99.90;;;;;;5053302;28;20173;-76
2023/08/14 04:00:30;;;;;;;8.68;1.85;;;16.50;99.90;;;;;;5052314;28;20235;-76
2023/08/14 04:02:56;;;;;;;5.15;1.25;;;16.50;99.90;;;;;;5053383;28;20204;-76
2023/08/14 04:05:21;;;;;;;9.88;1.70;;;16.50;99.90;;;;;;5051936;28;20201;-76
2023/08/14 04:07:47;;;;;;;9.20;1.70;;;16.50;99.90;;;;;;5053361;28;20259;-76
2023/08/14 04:10:12;;;;;;;10.55;1.92;;;16.60;99.90;;;;;;5052988;28;20180;-77
2023/08/14 04:12:38;;;;;;;4.97;1.30;;;16.60;99.90;;;;;;5052845;28;20737;-76
2023/08/14 04:15:17;;;;;;;9.60;1.58;;;16.60;99.90;;;;;;5052608;28;20176;-76
2023/08/14 04:17:43;;;;;;;7.03;1.50;;;16.60;99.90;;;;;;5043163;28;20177;-77
2023/08/14 04:20:09;;;;;;;5.38;1.33;;;16.60;99.90;;;;;;5052972;28;20642;-77
2023/08/14 04:22:35;;;;;;;6.60;1.20;;;16.60;99.90;;;;;;5052865;28;20173;-78
2023/08/14 04:25:01;;;;;;;7.85;1.40;;;16.60;99.90;;;;;;5052990;28;20241;-77
2023/08/14 04:27:27;;;;;;;4.78;1.50;;;16.60;99.90;;;;;;5051451;28;20320;-77
2023/08/14 04:29:53;;;;;;;5.72;1.95;;;16.60;99.90;;;;;;5052971;28;20272;-77
2023/08/14 04:32:19;;;;;;;11.75;1.80;;;16.60;99.90;;;;;;5052818;28;20229;-75
2023/08/14 04:34:44;;;;;;;6.68;1.77;;;16.60;99.90;;;;;;5052563;28;20200;-75
2023/08/14 04:37:10;;;;;;;6.65;1.58;;;16.60;99.90;;;;;;5051710;28;20181;-76
2023/08/14 04:39:35;;;;;;;6.68;1.50;;;16.60;99.90;;;;;;5052651;28;20161;-76
2023/08/14 04:42:01;;;;;;;3.80;1.55;;;16.60;99.90;;;;;;5052371;28;20247;-75
2023/08/14 04:44:27;;;;;;;7.72;2.25;;;;;;;;;;5052517;28;20173;-75
2023/08/14 04:46:52;;;;;;;7.97;2.13;;;16.60;99.90;;;;;;5051065;28;20203;-76
2023/08/14 04:49:18;;;;;;;7.35;2.40;;;16.60;99.90;;;;;;5052482;28;20644;-75
2023/08/14 04:51:44;;;;;;;10.20;2.60;;;16.60;99.90;;;;;;5052054;28;20224;-77
2023/08/14 04:54:09;;;;;;;14.57;2.85;;;16.60;99.90;;;;;;5052432;28;20176;-76
2023/08/14 04:56:35;;;;;;;12.32;2.45;;;16.60;99.90;;;;;;5052265;28;20191;-76
2023/08/14 04:59:01;;;;;;;8.10;2.38;;;16.70;99.90;;;;;;5052290;28;20173;-76
2023/08/14 05:01:26;;;;;;;9.00;2.70;;;16.70;99.90;;;;;;5052366;28;20184;-76
2023/08/14 05:03:52;;;;;;;10.18;2.53;;;16.70;99.90;;;;;;5040753;28;20182;-77
2023/08/14 05:06:17;;;;;;;14.82;2.65;;;16.70;99.90;;;;;;5050314;28;20204;-75
2023/08/14 05:08:43;;;;;;;12.02;2.38;;;16.70;99.90;;;;;;5045583;28;20188;-77
2023/08/14 05:11:09;;;;;;;7.88;1.95;;;16.70;99.90;;;;;;5047163;28;20205;-76
2023/08/14 05:13:34;;;;;;;9.77;2.10;;;16.80;99.90;;;;;;5052111;28;20177;-76
2023/08/14 05:16:00;;;;;;;10.82;2.38;;;16.80;99.90;;;;;;5051610;28;20197;-76
2023/08/14 05:18:25;;;;;;;8.80;2.25;;;16.80;99.90;;;;;;5051809;28;20256;-78
2023/08/14 05:20:53;;;;;;;8.75;2.67;;;16.90;99.90;;;;;;5051400;28;20174;-77
2023/08/14 05:23:19;;;;;;;7.40;1.88;;;16.90;99.90;;;;;;5031906;28;20189;-78
2023/08/14 05:25:45;;;;;;;10.38;2.33;;;16.90;99.90;;;;;;5031403;28;20224;-77
2023/08/14 05:28:11;;;;;;;8.65;2.33;;;16.90;99.90;;;;;;5044817;28;20177;-77
2023/08/14 05:30:41;;;;;;;5.97;1.45;;;16.90;99.90;;;;;;5051014;28;20274;-77
2023/08/14 05:33:07;;;;;;;13.60;2.15;;;17.00;99.90;;;;;;5051368;28;20181;-78
2023/08/14 05:35:32;;;;;;;5.13;1.50;;;17.00;99.90;;;;;;5049919;28;20176;-78
2023/08/14 05:37:59;;;;;;;11.43;1.92;;;17.00;99.90;;;;;;5051278;28;20536;-77
2023/08/14 05:40:28;;;;;;;5.32;1.77;;;17.00;99.90;;;;;;5054145;28;20219;-77
2023/08/14 05:43:06;;;;;;;8.90;2.38;;;17.00;99.90;;;;;;5052237;28;20187;-77
2023/08/14 05:45:33;;;;;;;5.68;1.40;;;17.00;99.90;;;;;;5049976;28;20647;-75
2023/08/14 05:48:00;;;;;;;7.88;1.65;;;17.00;99.90;;;;;;5051273;28;20181;-76
2023/08/14 05:50:27;;;;;;;5.50;1.58;;;17.00;99.90;;;;;;5050962;28;20635;-75
2023/08/14 05:52:56;;;;;;;4.97;1.35;;;17.00;99.90;;;;;;5051197;28;20178;-75
2023/08/14 05:55:23;;;;;;;9.60;1.70;;;17.00;99.90;;;;;;5051081;28;20238;-77
2023/08/14 05:57:48;;;;;;;3.63;0.93;;;17.00;99.90;;;;;;5051400;28;20173;-76
2023/08/14 06:00:15;;;;;;;4.65;1.35;;;16.90;99.90;;;;;;5050989;28;20520;-76
2023/08/14 06:02:41;;;;;;;3.38;0.85;;;17.00;99.90;;;;;;5051032;28;20161;-76
2023/08/14 06:05:08;;;;;;;4.30;0.98;;;17.00;99.90;;;;;;5050808;28;20176;-75
2023/08/14 06:07:34;;;;;;;3.53;1.10;;;17.00;99.90;;;;;;5051102;28;20169;-75
2023/08/14 06:10:00;;;;;;;2.15;0.70;;;17.10;99.90;;;;;;5051114;28;20197;-74
2023/08/14 06:12:25;;;;;;;5.25;1.00;;;17.10;99.90;;;;;;5050881;28;20652;-76
2023/08/14 06:14:51;;;;;;;2.78;0.90;;;17.10;99.90;;;;;;5049445;28;20181;-75
2023/08/14 06:17:16;;;;;;;5.38;0.77;;;17.10;99.90;;;;;;5051088;28;20648;-75
2023/08/14 06:19:42;;;;;;;1.80;0.68;;;17.10;99.90;;;;;;5049622;28;20271;-76
2023/08/14 06:22:07;;;;;;;1.70;0.60;;;17.10;99.90;;;;;;5051178;28;20178;-76
2023/08/14 06:24:33;;;;;;;2.45;0.60;;;17.20;99.90;;;;;;5050901;28;20582;-75
2023/08/14 06:26:58;;;;;;;3.10;1.00;;;17.20;99.90;;;;;;5050562;28;20221;-75
2023/08/14 06:29:24;;;;;;;1.95;0.88;;;17.20;99.90;;;;;;5050935;28;20541;-81
2023/08/14 06:31:50;;;;;;;4.22;0.90;;;17.20;99.90;;;;;;5033073;28;20209;-74
2023/08/14 06:34:16;;;;;;;2.10;0.70;;;17.20;99.90;;;;;;5050972;28;20311;-74
2023/08/14 06:36:42;;;;;;;4.75;0.82;;;17.20;99.90;;;;;;5050661;28;20252;-75
2023/08/14 06:39:07;;;;;;;3.83;0.90;;;17.20;99.90;;;;;;5051024;28;20211;-74
2023/08/14 06:41:33;;;;;;;2.78;0.90;;;17.20;99.90;;;;;;5050545;28;20635;-73
2023/08/14 06:43:59;;;;;;;2.30;0.63;;;17.20;99.90;;;;;;5049313;28;20165;-77
2023/08/14 06:46:24;;;;;;;3.72;0.98;;;17.30;99.90;;;;;;5049393;28;20188;-76
2023/08/14 06:48:50;;;;;;;3.20;0.52;;;19.40;99.90;;;;;;5049633;28;20183;-74
2023/08/14 06:51:15;;;;;;;3.35;0.60;;;17.30;99.90;;;;;;5049262;28;20212;-78
2023/08/14 06:53:41;;;;;;;2.50;0.77;;;17.30;99.90;;;;;;5049804;28;20209;-74
2023/08/14 06:56:07;;;;;;;3.55;1.35;;;17.30;99.90;;;;;;5050492;28;20205;-73
2023/08/14 06:58:33;;;;;;;1.67;0.55;;;;;;;;;;5060362;28;20188;-74
2023/08/14 07:00:58;;;;;;;2.15;0.68;;;17.50;99.90;;;;;;5051898;28;20200;-77
2023/08/14 07:03:24;;;;;;;2.85;0.60;;;17.50;99.90;;;;;;5052705;28;20200;-75
2023/08/14 07:05:50;;;;;;;4.57;0.73;;;17.50;99.90;;;;;;5054255;28;20209;-74
2023/08/14 07:08:16;;;;;;;3.20;0.50;;;17.50;99.90;;;;;;5054519;28;20199;-75
2023/08/14 07:10:41;;;;;;;2.05;0.60;;;17.60;99.90;;;;;;5052925;28;20699;-75
2023/08/14 07:13:07;;;;;;;3.80;0.73;;;17.50;99.90;;;;;;5054429;28;20173;-78
2023/08/14 07:15:33;;;;;;;2.88;0.73;;;17.50;99.90;;;;;;5053821;28;20173;-75
2023/08/14 07:17:59;;;;;;;3.42;0.65;;;17.50;99.90;;;;;;5053864;28;20686;-81
2023/08/14 07:20:26;;;;;;;2.55;0.50;;;17.50;99.90;;;;;;5053910;28;20788;-75
2023/08/14 07:22:52;;;;;;;4.78;1.00;;;17.50;99.90;;;;;;5054119;28;20210;-78
2023/08/14 07:25:18;;;;;;;2.80;0.80;;;17.50;99.90;;;;;;5052428;28;20636;-76
2023/08/14 07:27:44;;;;;;;7.05;1.00;;;17.60;99.90;;;;;;5054129;28;20698;-81
2023/08/14 07:30:10;;;;;;;9.60;1.35;;;17.30;99.90;;;;;;5052565;28;20269;-79
2023/08/14 07:32:36;;;;;;;5.95;1.30;;;17.60;99.90;;;;;;5047857;28;20654;-77
2023/08/14 07:35:02;;;;;;;4.03;1.20;;;17.70;99.90;;;;;;5032401;28;20186;-75
2023/08/14 07:37:28;;;;;;;6.18;1.17;;;17.70;99.90;;;;;;5066397;28;20201;-76
2023/08/14 07:39:54;;;;;;;3.63;0.95;;;17.80;99.90;;;;;;5054202;28;20216;-79
2023/08/14 07:42:19;;;;;;;4.72;1.10;;;17.80;99.90;;;;;;5053751;28;20181;-77
2023/08/14 07:44:45;;;;;;;10.98;2.40;;;17.80;99.90;;;;;;5052568;28;20542;-76
2023/08/14 07:47:11;;;;;;;5.85;1.45;;;17.70;99.90;;;;;;5054011;28;20172;-76
2023/08/14 07:49:36;;;;;;;9.02;1.63;;;17.80;99.90;;;;;;5053733;28;20257;-77
2023/08/14 07:52:02;;;;;;;7.22;1.55;;;17.70;99.90;;;;;;5052990;28;20706;-76
2023/08/14 07:54:28;;;;;;;8.40;1.77;;;17.70;99.90;;;;;;5053280;28;20172;-81
2023/08/14 07:56:53;;;;;;;8.57;1.80;;;17.70;99.90;;;;;;5053068;28;20181;-79
2023/08/14 07:59:19;;;;;;;6.43;1.20;;;17.90;99.90;;;;;;5052989;28;20178;-75
2023/08/14 08:01:45;;;;;;;7.82;1.52;;;17.80;99.90;;;;;;5052800;28;20185;-77
2023/08/14 08:04:11;;;;;;;5.38;1.27;;;17.90;99.90;;;;;;5051634;28;20700;-79
2023/08/14 08:06:36;;;;;;;5.97;1.30;;;17.90;99.90;;;;;;5053170;28;20177;-78
2023/08/14 08:09:03;;;;;;;8.07;1.20;;;17.90;99.90;;;;;;5051739;28;20640;-77
2023/08/14 08:11:29;;;;;;;3.95;1.27;;;17.90;99.90;;;;;;5052398;28;20219;-79
2023/08/14 08:13:54;;;;;;;3.65;1.02;;;18.00;99.90;;;;;;5053039;28;20656;-76
2023/08/14 08:16:20;;;;;;;5.10;1.10;;;17.90;99.90;;;;;;5064340;28;20264;-79
2023/08/14 08:18:46;;;;;;;4.75;1.30;;;18.00;99.90;;;;;;5053505;28;20632;-78
2023/08/14 08:21:11;;;;;;;3.08;0.75;;;18.20;99.90;;;;;;5052035;28;20169;-81
2023/08/14 08:23:37;;;;;;;5.65;1.10;;;17.90;99.90;;;;;;5052997;28;20184;-81
2023/08/14 08:26:03;;;;;;;9.82;2.30;;;17.90;99.90;;;;;;5052665;28;20221;-79
2023/08/14 08:28:29;;;;;;;7.57;1.90;;;17.90;99.90;;;;;;5051572;28;20173;-78
2023/08/14 08:30:55;;;;;;;6.53;1.70;;;17.90;99.90;;;;;;5052492;28;20220;-79
2023/08/14 08:33:20;;;;;;;14.00;2.15;;;17.90;99.90;;;;;;5052900;28;20275;-82
2023/08/14 08:35:46;;;;;;;12.02;2.30;;;17.80;99.90;;;;;;5052684;28;20168;-79
2023/08/14 08:38:12;;;;;;;11.73;2.45;;;18.10;99.90;;;;;;5045198;28;20652;-75
2023/08/14 08:40:41;;;;;;;12.07;2.80;;;18.00;99.90;;;;;;5042216;28;20180;-76
2023/08/14 08:43:10;;;;;;;11.85;3.08;;;17.90;99.90;;;;;;5043648;28;20174;-79
2023/08/14 08:45:38;;;;;;;20.30;3.28;;;17.80;99.90;;;;;;5042037;28;20635;-80
2023/08/14 08:48:07;;;;;;;16.58;2.30;;;17.80;99.90;;;;;;5039528;28;20197;-80
2023/08/14 08:50:33;;;;;;;17.40;3.17;;;17.80;99.90;;;;;;5042171;28;20181;-80
2023/08/14 08:52:59;;;;;;;17.50;3.00;;;17.80;99.90;;;;;;5045694;28;20185;-78
2023/08/14 08:55:25;;;;;;;17.80;3.67;;;17.80;99.90;;;;;;5059017;28;20173;-80
2023/08/14 08:57:53;;;;;;;15.32;3.15;;;17.80;99.90;;;;;;5051542;28;20183;-82
2023/08/14 09:00:20;;;;;;;16.20;2.85;;;17.80;99.90;;;;;;5051935;28;20243;-78
2023/08/14 09:02:46;;;;;;;16.05;2.83;;;17.80;99.90;;;;;;5052299;28;20180;-75
2023/08/14 09:05:11;;;;;;;15.18;3.60;;;17.90;99.90;;;;;;5052600;28;20216;-77
2023/08/14 09:07:37;;;;;;;15.38;3.10;;;18.00;99.90;;;;;;5051741;28;20181;-77
2023/08/14 09:10:03;;;;;;;15.18;2.88;;;18.10;99.90;;;;;;5051908;28;20260;-76
2023/08/14 09:12:30;;;;;;;10.13;2.75;;;18.20;99.90;;;;;;5052240;28;20205;-76
2023/08/14 09:15:06;;;;;;;24.40;3.00;;;18.20;99.90;;;;;;5052301;28;20223;-77
2023/08/14 09:17:32;;;;;;;10.95;2.45;;;18.30;99.90;;;;;;5052849;28;20303;-79
2023/08/14 09:19:57;;;;;;;11.30;2.53;;;18.40;99.90;;;;;;5050709;28;20203;-78
2023/08/14 09:22:27;;;;;;;8.73;2.22;;;18.50;99.90;;;;;;5051936;28;20647;-77
2023/08/14 09:24:53;;;;;;;10.00;2.47;;;18.50;99.90;;;;;;5051865;28;20248;-80
2023/08/14 09:27:20;;;;;;;12.18;2.05;;;18.60;99.90;;;;;;5050797;28;20220;-81
2023/08/14 09:29:46;;;;;;;10.43;2.22;;;18.60;99.90;;;;;;5052895;28;20176;-83
2023/08/14 09:32:12;;;;;;;14.85;3.08;;;18.70;99.90;;;;;;5054068;28;20201;-81
2023/08/14 09:34:37;;;;;;;11.77;3.08;;;18.60;99.90;;;;;;5055944;28;20645;-81
2023/08/14 09:37:06;;;;;;;12.43;2.67;;;18.50;99.90;;;;;;5034620;28;20657;-78
2023/08/14 09:39:32;;;;;;;11.13;2.92;;;18.60;99.90;;;;;;5052861;28;20169;-82
2023/08/14 09:41:59;;;;;;;16.88;3.10;;;18.40;99.90;;;;;;5050457;28;20184;-80
2023/08/14 09:44:25;;;;;;;15.70;2.78;;;18.50;99.90;;;;;;5050139;28;20656;-82
2023/08/14 09:46:53;;;;;;;15.57;3.25;;;18.40;99.90;;;;;;5031087;28;20206;-83
2023/08/14 09:49:19;;;;;;;13.27;3.03;;;18.40;99.90;;;;;;5060472;28;20196;-84
2023/08/14 09:51:57;;;;;;;12.35;2.63;;;18.40;99.90;;;;;;5050205;28;20230;-82
2023/08/14 09:54:31;;;;;;;12.70;2.63;;;18.30;99.90;;;;;;5040190;28;20185;-83
2023/08/14 09:56:59;;;;;;;10.02;2.58;;;18.20;99.90;;;;;;5056089;28;20688;-78
2023/08/14 09:59:25;;;;;;;10.82;2.70;;;18.10;99.90;;;;;;5052560;28;20176;-81
2023/08/14 10:01:53;;;;;;;12.55;2.15;;;18.20;99.90;;;;;;5050916;28;20177;-77
2023/08/14 10:04:21;;;;;;;10.65;2.50;;;18.00;99.90;;;;;;5051321;28;20157;-83
2023/08/14 10:06:47;;;;;;;4.72;1.20;;;18.10;99.90;;;;;;5043176;28;20259;-80
2023/08/14 10:09:13;;;;;;;9.50;1.80;;;18.20;99.90;;;;;;5042013;28;20176;-83
2023/08/14 10:11:40;;;;;;;8.60;1.88;;;17.80;99.90;;;;;;5044340;28;20206;-81
2023/08/14 10:14:06;;;;;;;7.50;1.73;;;18.10;99.90;;;;;;5038581;28;20177;-78
2023/08/14 10:16:39;;;;;;;6.53;1.33;;;18.20;99.90;;;;;;5049955;28;20231;-75
2023/08/14 10:19:12;;;;;;;10.35;2.22;;;18.40;99.90;;;;;;5050360;28;20231;-81
2023/08/14 10:21:40;;;;;;;7.53;2.13;;;18.40;99.90;;;;;;5050626;28;20177;-78
2023/08/14 10:24:07;;;;;;;6.90;1.50;;;18.40;99.90;;;;;;5049748;28;20169;-79
2023/08/14 10:26:33;;;;;;;7.95;1.98;;;18.60;99.90;;;;;;5051113;28;20237;-80
2023/08/14 10:28:59;;;;;;;6.18;1.83;;;18.60;99.90;;;;;;5049876;28;20177;-77
2023/08/14 10:31:27;;;;;;;11.25;2.20;;;19.20;99.90;;;;;;5048551;28;20217;-77
2023/08/14 10:33:55;;;;;;;7.75;1.70;;;18.90;99.90;;;;;;5049552;28;20263;-77
2023/08/14 10:36:22;;;;;;;11.07;2.20;;;18.90;99.90;;;;;;5053620;28;20177;-73
2023/08/14 10:38:50;;;;;;;5.85;1.67;;;18.90;99.90;;;;;;5054680;28;20211;-73
2023/08/14 10:41:17;;;;;;;6.78;1.48;;;18.80;99.90;;;;;;5054654;28;20165;-75
2023/08/14 10:43:46;;;;;;;3.22;1.23;;;18.70;99.90;;;;;;5053889;28;20205;-75
2023/08/14 10:46:16;;;;;;;8.52;1.90;;;18.70;99.90;;;;;;5052475;28;20188;-74
2023/08/14 10:48:44;;;;;;;9.00;1.73;;;18.70;99.90;;;;;;5053318;28;20188;-75
2023/08/14 10:51:13;;;;;;;4.95;1.20;;;18.70;99.90;;;;;;5053803;28;20291;-74
2023/08/14 10:53:40;;;;;;;8.00;1.83;;;18.70;99.90;;;;;;5054164;28;20192;-75
2023/08/14 10:56:06;;;;;;;7.30;1.60;;;18.70;99.90;;;;;;5046630;28;20189;-76
2023/08/14 10:58:36;;;;;;;6.35;1.42;;;18.70;99.90;;;;;;5034542;28;20249;-76
2023/08/14 11:01:06;;;;;;;5.05;1.42;;;18.70;99.90;;;;;;5046278;28;20180;-76
2023/08/14 11:03:34;;;;;;;8.70;1.50;;;18.80;99.90;;;;;;5053965;28;20247;-75
2023/08/14 11:06:00;;;;;;;7.28;1.52;;;18.80;99.90;;;;;;5054110;28;20165;-77
2023/08/14 11:08:29;;;;;;;6.35;1.70;;;19.00;99.90;;;;;;5054557;28;20176;-74
2023/08/14 11:10:56;;;;;;;6.28;1.70;;;19.20;99.90;;;;;;5054195;28;20201;-77
2023/08/14 11:13:22;;;;;;;7.18;1.42;;;19.30;99.90;;;;;;5053983;28;20169;-74
2023/08/14 11:15:48;;;;;;;5.88;1.52;;;19.40;99.90;;;;;;5054219;28;20183;-77
2023/08/14 11:18:15;;;;;;;6.70;1.75;;;19.70;99.90;;;;;;5053645;28;20200;-77
2023/08/14 11:20:42;;;;;;;6.30;1.20;;;19.80;99.90;;;;;;5053803;28;20269;-77
2023/08/14 11:23:09;;;;;;;8.05;1.35;;;19.80;99.90;;;;;;5054242;28;20171;-75
2023/08/14 11:25:34;;;;;;;10.38;2.05;;;19.90;99.90;;;;;;5054055;28;20217;-76
2023/08/14 11:28:01;;;;;;;7.95;1.60;;;20.10;99.90;;;;;;5054117;28;20168;-77
2023/08/14 11:30:35;;;;;;;6.57;1.45;;;20.20;99.90;;;;;;5052571;28;20227;-76
2023/08/14 11:33:05;;;;;;;4.65;1.60;;;20.80;99.90;;;;;;5054792;28;20674;-76
2023/08/14 11:35:31;;;;;;;7.38;1.70;;;20.10;99.90;;;;;;5053560;28;20180;-78
2023/08/14 11:37:57;;;;;;;5.75;1.50;;;20.30;99.90;;;;;;5054102;28;20204;-77
2023/08/14 11:40:24;;;;;;;6.22;1.48;;;20.10;99.90;;;;;;5053906;28;20252;-74
2023/08/14 11:42:50;;;;;;;4.93;1.27;;;20.30;99.90;;;;;;5054417;28;20562;-77
2023/08/14 11:45:15;;;;;;;7.80;1.80;;;20.30;99.90;;;;;;5053744;28;20169;-77
2023/08/14 11:47:49;;;;;;;2.80;1.17;;;20.30;99.90;;;;;;5053681;28;20169;-78
2023/08/14 11:50:16;;;;;;;4.53;1.20;;;20.20;99.90;;;;;;5053836;28;20173;-76
2023/08/14 11:52:42;;;;;;;6.05;1.55;;;20.30;99.90;;;;;;5049804;28;20205;-76
2023/08/14 11:55:09;;;;;;;7.78;1.52;;;20.20;99.90;;;;;;5035477;28;20185;-75
2023/08/14 11:57:36;;;;;;;4.30;1.10;;;20.40;99.90;;;;;;5037701;28;20157;-77
2023/08/14 12:00:10;;;;;;;7.63;1.13;;;20.40;99.90;;;;;;5053404;28;20513;-75
2023/08/14 12:02:36;;;;;;;6.85;1.30;;;20.70;99.90;;;;;;5049740;28;20237;-76
2023/08/14 12:05:02;;;;;;;6.68;1.38;;;20.70;99.90;;;;;;5052850;28;20178;-77
2023/08/14 12:07:29;;;;;;;8.93;1.50;;;20.70;99.90;;;;;;5053218;28;20187;-74
2023/08/14 12:09:55;;;;;;;6.13;1.42;;;20.90;99.90;;;;;;5053776;28;20762;-75
2023/08/14 12:12:22;;;;;;;2.92;0.82;;;21.10;99.90;;;;;;5049077;28;20205;-76
2023/08/14 12:14:49;;;;;;;3.15;0.80;;;21.10;99.90;;;;;;5053132;28;20906;-75
2023/08/14 12:17:18;;;;;;;2.25;0.80;;;21.30;99.90;;;;;;5052564;28;20170;-77
2023/08/14 12:19:52;;;;;;;3.92;0.60;;;21.50;99.90;;;;;;5052622;28;20227;-78
2023/08/14 12:22:22;;;;;;;1.70;0.50;;;21.40;99.90;;;;;;5042103;28;20275;-74
2023/08/14 12:24:48;;;;;;;1.65;0.43;;;21.20;99.90;;;;;;5036798;28;20442;-78
2023/08/14 12:27:18;;;;;;;1.83;0.60;;;21.30;99.90;;;;;;5051574;28;20235;-76
2023/08/14 12:29:44;;;;;;;1.05;0.60;;;20.90;99.90;;;;;;5052638;28;20181;-75
2023/08/14 12:32:10;;;;;;;0.55;0.40;;;20.90;99.90;;;;;;5052455;28;20197;-76
2023/08/14 12:34:36;;;;;;;1.27;0.20;;;20.60;99.90;;;;;;5052412;28;20173;-75
2023/08/14 12:37:03;;;;;;;4.78;0.38;;;20.40;99.90;;;;;;5053289;28;20173;-75
2023/08/14 12:39:29;;;;;;;4.35;0.30;;;20.70;99.90;;;;;;5053259;28;20252;-75
2023/08/14 12:41:56;;;;;;;4.18;0.40;;;20.70;99.90;;;;;;5053182;28;20651;-74